sensor_id;sensor_type;location;lat;lon;timestamp;P1;durP1;ratioP1;P2;durP2;ratioP2
6513;SDS011;3290;47.716;9.070;2023-07-28T00:01:08;7.97;;;4.10;;
6513;SDS011;3290;47.716;9.070;2023-07-28T00:03:33;5.30;;;3.37;;
6513;SDS011;3290;47.716;9.070;2023-07-28T00:05:58;4.90;;;3.80;;
6513;SDS011;3290;47.716;9.070;2023-07-28T00:08:24;6.47;;;4.20;;
6513;SDS011;3290;47.716;9.070;2023-07-28T00:10:49;6.20;;;3.93;;
6513;SDS011;3290;47.716;9.070;2023-07-28T00:13:14;7.13;;;4.50;;
6513;SDS011;3290;47.716;9.070;2023-07-28T00:15:40;11.43;;;3.90;;
6513;SDS011;3290;47.716;9.070;2023-07-28T00:18:05;4.43;;;3.77;;
6513;SDS011;3290;47.716;9.070;2023-07-28T00:20:31;4.97;;;3.70;;
6513;SDS011;3290;47.716;9.070;2023-07-28T00:22:56;4.70;;;3.87;;
6513;SDS011;3290;47.716;9.070;2023-07-28T00:25:22;4.47;;;3.87;;
6513;SDS011;3290;47.716;9.070;2023-07-28T00:27:47;5.53;;;4.00;;
6513;SDS011;3290;47.716;9.070;2023-07-28T00:30:12;4.00;;;3.60;;
6513;SDS011;3290;47.716;9.070;2023-07-28T00:32:38;4.93;;;3.43;;
6513;SDS011;3290;47.716;9.070;2023-07-28T00:35:03;3.67;;;3.30;;
6513;SDS011;3290;47.716;9.070;2023-07-28T00:37:29;8.10;;;3.70;;
6513;SDS011;3290;47.716;9.070;2023-07-28T00:39:54;6.50;;;4.33;;
6513;SDS011;3290;47.716;9.070;2023-07-28T00:42:19;7.43;;;3.70;;
6513;SDS011;3290;47.716;9.070;2023-07-28T00:44:45;10.37;;;4.40;;
6513;SDS011;3290;47.716;9.070;2023-07-28T00:47:10;6.77;;;4.00;;
6513;SDS011;3290;47.716;9.070;2023-07-28T00:49:36;6.27;;;3.70;;
6513;SDS011;3290;47.716;9.070;2023-07-28T00:52:05;5.60;;;4.40;;
6513;SDS011;3290;47.716;9.070;2023-07-28T00:54:32;5.20;;;3.60;;
6513;SDS011;3290;47.716;9.070;2023-07-28T00:56:58;4.57;;;3.57;;
6513;SDS011;3290;47.716;9.070;2023-07-28T00:59:23;4.17;;;3.40;;
6513;SDS011;3290;47.716;9.070;2023-07-28T01:01:49;5.27;;;3.90;;
6513;SDS011;3290;47.716;9.070;2023-07-28T01:04:14;7.33;;;4.00;;
6513;SDS011;3290;47.716;9.070;2023-07-28T01:09:27;4.03;;;3.57;;
6513;SDS011;3290;47.716;9.070;2023-07-28T01:11:58;5.37;;;3.90;;
6513;SDS011;3290;47.716;9.070;2023-07-28T01:14:24;5.00;;;3.73;;
6513;SDS011;3290;47.716;9.070;2023-07-28T01:16:50;4.17;;;3.60;;
6513;SDS011;3290;47.716;9.070;2023-07-28T01:19:16;5.57;;;4.17;;
6513;SDS011;3290;47.716;9.070;2023-07-28T01:21:43;5.70;;;3.97;;
6513;SDS011;3290;47.716;9.070;2023-07-28T01:24:30;7.93;;;4.37;;
6513;SDS011;3290;47.716;9.070;2023-07-28T01:27:04;7.00;;;4.07;;
6513;SDS011;3290;47.716;9.070;2023-07-28T01:29:30;7.00;;;4.80;;
6513;SDS011;3290;47.716;9.070;2023-07-28T01:31:58;8.93;;;4.50;;
6513;SDS011;3290;47.716;9.070;2023-07-28T01:34:24;4.00;;;3.60;;
6513;SDS011;3290;47.716;9.070;2023-07-28T01:36:50;6.83;;;4.63;;
6513;SDS011;3290;47.716;9.070;2023-07-28T01:39:15;4.30;;;3.83;;
6513;SDS011;3290;47.716;9.070;2023-07-28T01:41:40;10.23;;;4.07;;
6513;SDS011;3290;47.716;9.070;2023-07-28T01:44:08;5.63;;;3.87;;
6513;SDS011;3290;47.716;9.070;2023-07-28T01:46:34;6.70;;;3.90;;
6513;SDS011;3290;47.716;9.070;2023-07-28T01:48:59;6.33;;;4.60;;
6513;SDS011;3290;47.716;9.070;2023-07-28T01:51:24;5.50;;;3.97;;
6513;SDS011;3290;47.716;9.070;2023-07-28T01:53:50;4.10;;;3.60;;
6513;SDS011;3290;47.716;9.070;2023-07-28T01:56:15;6.40;;;4.33;;
6513;SDS011;3290;47.716;9.070;2023-07-28T01:58:40;5.80;;;4.07;;
6513;SDS011;3290;47.716;9.070;2023-07-28T02:01:06;9.00;;;5.00;;
6513;SDS011;3290;47.716;9.070;2023-07-28T02:03:31;8.53;;;4.63;;
6513;SDS011;3290;47.716;9.070;2023-07-28T02:05:56;5.00;;;4.50;;
6513;SDS011;3290;47.716;9.070;2023-07-28T02:08:22;10.13;;;5.27;;
6513;SDS011;3290;47.716;9.070;2023-07-28T02:10:47;7.83;;;4.23;;
6513;SDS011;3290;47.716;9.070;2023-07-28T02:13:12;6.90;;;5.53;;
6513;SDS011;3290;47.716;9.070;2023-07-28T02:15:38;6.17;;;4.03;;
6513;SDS011;3290;47.716;9.070;2023-07-28T02:18:03;13.00;;;5.13;;
6513;SDS011;3290;47.716;9.070;2023-07-28T02:20:29;6.20;;;4.80;;
6513;SDS011;3290;47.716;9.070;2023-07-28T02:22:54;6.50;;;4.17;;
6513;SDS011;3290;47.716;9.070;2023-07-28T02:25:21;6.47;;;4.60;;
6513;SDS011;3290;47.716;9.070;2023-07-28T02:27:46;13.43;;;4.97;;
6513;SDS011;3290;47.716;9.070;2023-07-28T02:30:12;6.37;;;4.63;;
6513;SDS011;3290;47.716;9.070;2023-07-28T02:32:37;5.60;;;4.53;;
6513;SDS011;3290;47.716;9.070;2023-07-28T02:35:03;8.20;;;4.30;;
6513;SDS011;3290;47.716;9.070;2023-07-28T02:37:28;5.70;;;4.63;;
6513;SDS011;3290;47.716;9.070;2023-07-28T02:39:54;4.30;;;3.83;;
6513;SDS011;3290;47.716;9.070;2023-07-28T02:42:19;5.73;;;4.20;;
6513;SDS011;3290;47.716;9.070;2023-07-28T02:44:44;7.63;;;4.80;;
6513;SDS011;3290;47.716;9.070;2023-07-28T02:47:10;6.70;;;5.17;;
6513;SDS011;3290;47.716;9.070;2023-07-28T02:49:35;5.37;;;4.47;;
6513;SDS011;3290;47.716;9.070;2023-07-28T02:52:01;8.93;;;4.33;;
6513;SDS011;3290;47.716;9.070;2023-07-28T02:54:28;5.40;;;4.47;;
6513;SDS011;3290;47.716;9.070;2023-07-28T02:56:53;6.07;;;3.93;;
6513;SDS011;3290;47.716;9.070;2023-07-28T02:59:19;5.00;;;3.90;;
6513;SDS011;3290;47.716;9.070;2023-07-28T03:01:44;7.77;;;4.73;;
6513;SDS011;3290;47.716;9.070;2023-07-28T03:04:10;3.93;;;3.53;;
6513;SDS011;3290;47.716;9.070;2023-07-28T03:06:35;4.00;;;3.60;;
6513;SDS011;3290;47.716;9.070;2023-07-28T03:09:00;11.20;;;4.20;;
6513;SDS011;3290;47.716;9.070;2023-07-28T03:11:26;7.93;;;4.53;;
6513;SDS011;3290;47.716;9.070;2023-07-28T03:13:51;7.33;;;4.03;;
6513;SDS011;3290;47.716;9.070;2023-07-28T03:16:17;4.40;;;3.30;;
6513;SDS011;3290;47.716;9.070;2023-07-28T03:18:42;4.40;;;3.80;;
6513;SDS011;3290;47.716;9.070;2023-07-28T03:21:10;5.00;;;4.27;;
6513;SDS011;3290;47.716;9.070;2023-07-28T03:23:36;5.13;;;4.07;;
6513;SDS011;3290;47.716;9.070;2023-07-28T03:26:01;4.33;;;3.80;;
6513;SDS011;3290;47.716;9.070;2023-07-28T03:28:26;5.40;;;4.17;;
6513;SDS011;3290;47.716;9.070;2023-07-28T03:30:52;6.47;;;4.43;;
6513;SDS011;3290;47.716;9.070;2023-07-28T03:33:17;6.70;;;3.83;;
6513;SDS011;3290;47.716;9.070;2023-07-28T03:35:42;5.23;;;4.57;;
6513;SDS011;3290;47.716;9.070;2023-07-28T03:38:08;6.67;;;4.43;;
6513;SDS011;3290;47.716;9.070;2023-07-28T03:40:33;6.00;;;4.00;;
6513;SDS011;3290;47.716;9.070;2023-07-28T03:42:58;8.17;;;4.70;;
6513;SDS011;3290;47.716;9.070;2023-07-28T03:45:24;5.80;;;4.30;;
6513;SDS011;3290;47.716;9.070;2023-07-28T03:47:49;9.73;;;3.80;;
6513;SDS011;3290;47.716;9.070;2023-07-28T03:50:15;4.67;;;4.10;;
6513;SDS011;3290;47.716;9.070;2023-07-28T03:52:40;20.77;;;4.40;;
6513;SDS011;3290;47.716;9.070;2023-07-28T03:55:06;6.70;;;4.10;;
6513;SDS011;3290;47.716;9.070;2023-07-28T03:57:31;7.77;;;4.17;;
6513;SDS011;3290;47.716;9.070;2023-07-28T03:59:56;4.30;;;3.90;;
6513;SDS011;3290;47.716;9.070;2023-07-28T04:02:22;10.73;;;4.50;;
6513;SDS011;3290;47.716;9.070;2023-07-28T04:04:52;8.33;;;4.20;;
6513;SDS011;3290;47.716;9.070;2023-07-28T04:07:19;11.37;;;5.07;;
6513;SDS011;3290;47.716;9.070;2023-07-28T04:09:44;6.50;;;4.50;;
6513;SDS011;3290;47.716;9.070;2023-07-28T04:12:10;5.90;;;3.97;;
6513;SDS011;3290;47.716;9.070;2023-07-28T04:14:35;7.40;;;3.93;;
6513;SDS011;3290;47.716;9.070;2023-07-28T04:17:01;4.93;;;3.70;;
6513;SDS011;3290;47.716;9.070;2023-07-28T04:19:26;5.63;;;3.63;;
6513;SDS011;3290;47.716;9.070;2023-07-28T04:21:54;4.43;;;3.83;;
6513;SDS011;3290;47.716;9.070;2023-07-28T04:24:19;4.43;;;4.00;;
6513;SDS011;3290;47.716;9.070;2023-07-28T04:26:44;9.10;;;3.83;;
6513;SDS011;3290;47.716;9.070;2023-07-28T04:29:13;4.50;;;3.90;;
6513;SDS011;3290;47.716;9.070;2023-07-28T04:31:39;5.50;;;4.20;;
6513;SDS011;3290;47.716;9.070;2023-07-28T04:34:04;4.47;;;4.07;;
6513;SDS011;3290;47.716;9.070;2023-07-28T04:36:30;8.33;;;4.30;;
6513;SDS011;3290;47.716;9.070;2023-07-28T04:38:55;4.70;;;3.90;;
6513;SDS011;3290;47.716;9.070;2023-07-28T04:41:20;6.77;;;4.30;;
6513;SDS011;3290;47.716;9.070;2023-07-28T04:43:46;6.07;;;4.13;;
6513;SDS011;3290;47.716;9.070;2023-07-28T04:46:11;7.13;;;4.20;;
6513;SDS011;3290;47.716;9.070;2023-07-28T04:48:36;5.63;;;4.30;;
6513;SDS011;3290;47.716;9.070;2023-07-28T04:51:02;6.23;;;4.20;;
6513;SDS011;3290;47.716;9.070;2023-07-28T04:53:27;10.90;;;4.70;;
6513;SDS011;3290;47.716;9.070;2023-07-28T04:55:53;4.87;;;3.73;;
6513;SDS011;3290;47.716;9.070;2023-07-28T04:58:18;7.00;;;3.73;;
6513;SDS011;3290;47.716;9.070;2023-07-28T05:00:43;4.97;;;4.47;;
6513;SDS011;3290;47.716;9.070;2023-07-28T05:03:09;6.13;;;4.40;;
6513;SDS011;3290;47.716;9.070;2023-07-28T05:05:34;6.03;;;3.93;;
6513;SDS011;3290;47.716;9.070;2023-07-28T05:07:59;6.90;;;4.70;;
6513;SDS011;3290;47.716;9.070;2023-07-28T05:10:25;5.27;;;3.93;;
6513;SDS011;3290;47.716;9.070;2023-07-28T05:12:50;4.47;;;3.37;;
6513;SDS011;3290;47.716;9.070;2023-07-28T05:15:15;9.53;;;4.00;;
6513;SDS011;3290;47.716;9.070;2023-07-28T05:17:41;4.33;;;3.93;;
6513;SDS011;3290;47.716;9.070;2023-07-28T05:20:06;6.10;;;4.07;;
6513;SDS011;3290;47.716;9.070;2023-07-28T05:22:32;8.07;;;4.53;;
6513;SDS011;3290;47.716;9.070;2023-07-28T05:24:57;8.60;;;4.20;;
6513;SDS011;3290;47.716;9.070;2023-07-28T05:27:23;5.43;;;3.90;;
6513;SDS011;3290;47.716;9.070;2023-07-28T05:29:49;6.97;;;3.90;;
6513;SDS011;3290;47.716;9.070;2023-07-28T05:32:14;5.57;;;4.17;;
6513;SDS011;3290;47.716;9.070;2023-07-28T05:34:42;7.70;;;4.30;;
6513;SDS011;3290;47.716;9.070;2023-07-28T05:37:09;5.80;;;3.37;;
6513;SDS011;3290;47.716;9.070;2023-07-28T05:39:34;4.97;;;3.60;;
6513;SDS011;3290;47.716;9.070;2023-07-28T05:41:59;5.33;;;3.60;;
6513;SDS011;3290;47.716;9.070;2023-07-28T05:44:25;4.00;;;3.50;;
6513;SDS011;3290;47.716;9.070;2023-07-28T05:46:50;6.67;;;3.90;;
6513;SDS011;3290;47.716;9.070;2023-07-28T05:49:15;11.53;;;3.53;;
6513;SDS011;3290;47.716;9.070;2023-07-28T05:51:41;4.30;;;3.63;;
6513;SDS011;3290;47.716;9.070;2023-07-28T05:54:06;5.63;;;3.77;;
6513;SDS011;3290;47.716;9.070;2023-07-28T05:56:32;7.37;;;3.60;;
6513;SDS011;3290;47.716;9.070;2023-07-28T05:58:57;6.40;;;2.90;;
6513;SDS011;3290;47.716;9.070;2023-07-28T06:01:22;6.73;;;3.27;;
6513;SDS011;3290;47.716;9.070;2023-07-28T06:03:50;7.17;;;4.70;;
6513;SDS011;3290;47.716;9.070;2023-07-28T06:06:16;4.70;;;3.23;;
6513;SDS011;3290;47.716;9.070;2023-07-28T06:08:43;6.23;;;3.37;;
6513;SDS011;3290;47.716;9.070;2023-07-28T06:11:09;9.03;;;3.27;;
6513;SDS011;3290;47.716;9.070;2023-07-28T06:13:34;4.43;;;3.20;;
6513;SDS011;3290;47.716;9.070;2023-07-28T06:15:59;10.63;;;3.37;;
6513;SDS011;3290;47.716;9.070;2023-07-28T06:18:25;3.80;;;3.10;;
6513;SDS011;3290;47.716;9.070;2023-07-28T06:20:50;10.40;;;3.00;;
6513;SDS011;3290;47.716;9.070;2023-07-28T06:23:16;4.73;;;3.20;;
6513;SDS011;3290;47.716;9.070;2023-07-28T06:25:41;3.97;;;2.73;;
6513;SDS011;3290;47.716;9.070;2023-07-28T06:28:10;4.97;;;2.67;;
6513;SDS011;3290;47.716;9.070;2023-07-28T06:30:36;6.30;;;3.43;;
6513;SDS011;3290;47.716;9.070;2023-07-28T06:33:02;4.20;;;3.30;;
6513;SDS011;3290;47.716;9.070;2023-07-28T06:35:28;6.03;;;2.87;;
6513;SDS011;3290;47.716;9.070;2023-07-28T06:37:54;5.13;;;3.10;;
6513;SDS011;3290;47.716;9.070;2023-07-28T06:40:19;6.03;;;3.37;;
6513;SDS011;3290;47.716;9.070;2023-07-28T06:42:45;3.43;;;3.00;;
6513;SDS011;3290;47.716;9.070;2023-07-28T06:45:11;3.97;;;2.80;;
6513;SDS011;3290;47.716;9.070;2023-07-28T06:47:36;5.53;;;2.60;;
6513;SDS011;3290;47.716;9.070;2023-07-28T06:50:02;6.70;;;3.47;;
6513;SDS011;3290;47.716;9.070;2023-07-28T06:52:27;3.80;;;2.80;;
6513;SDS011;3290;47.716;9.070;2023-07-28T06:54:53;4.07;;;3.10;;
6513;SDS011;3290;47.716;9.070;2023-07-28T06:57:19;4.70;;;2.97;;
6513;SDS011;3290;47.716;9.070;2023-07-28T06:59:45;3.80;;;2.60;;
6513;SDS011;3290;47.716;9.070;2023-07-28T07:02:10;2.63;;;2.33;;
6513;SDS011;3290;47.716;9.070;2023-07-28T07:04:36;3.23;;;2.70;;
6513;SDS011;3290;47.716;9.070;2023-07-28T07:07:02;2.73;;;2.43;;
6513;SDS011;3290;47.716;9.070;2023-07-28T07:09:27;4.93;;;2.47;;
6513;SDS011;3290;47.716;9.070;2023-07-28T07:11:53;3.50;;;2.80;;
6513;SDS011;3290;47.716;9.070;2023-07-28T07:14:18;3.33;;;2.60;;
6513;SDS011;3290;47.716;9.070;2023-07-28T07:16:44;4.10;;;2.50;;
6513;SDS011;3290;47.716;9.070;2023-07-28T07:19:09;3.63;;;2.50;;
6513;SDS011;3290;47.716;9.070;2023-07-28T07:21:34;6.07;;;2.77;;
6513;SDS011;3290;47.716;9.070;2023-07-28T07:24:02;6.53;;;2.87;;
6513;SDS011;3290;47.716;9.070;2023-07-28T07:26:28;3.50;;;2.90;;
6513;SDS011;3290;47.716;9.070;2023-07-28T07:28:54;6.07;;;2.83;;
6513;SDS011;3290;47.716;9.070;2023-07-28T07:31:19;3.10;;;2.80;;
6513;SDS011;3290;47.716;9.070;2023-07-28T07:33:45;5.90;;;2.80;;
6513;SDS011;3290;47.716;9.070;2023-07-28T07:36:14;5.00;;;2.60;;
6513;SDS011;3290;47.716;9.070;2023-07-28T07:38:40;3.20;;;2.40;;
6513;SDS011;3290;47.716;9.070;2023-07-28T07:41:07;3.43;;;2.20;;
6513;SDS011;3290;47.716;9.070;2023-07-28T07:43:36;3.23;;;2.80;;
6513;SDS011;3290;47.716;9.070;2023-07-28T07:46:01;3.30;;;2.20;;
6513;SDS011;3290;47.716;9.070;2023-07-28T07:48:26;3.20;;;2.80;;
6513;SDS011;3290;47.716;9.070;2023-07-28T07:50:55;3.37;;;2.60;;
6513;SDS011;3290;47.716;9.070;2023-07-28T07:53:22;2.97;;;2.40;;
6513;SDS011;3290;47.716;9.070;2023-07-28T07:55:48;3.63;;;2.30;;
6513;SDS011;3290;47.716;9.070;2023-07-28T07:58:14;5.97;;;2.30;;
6513;SDS011;3290;47.716;9.070;2023-07-28T08:00:40;2.83;;;2.17;;
6513;SDS011;3290;47.716;9.070;2023-07-28T08:03:05;2.80;;;2.10;;
6513;SDS011;3290;47.716;9.070;2023-07-28T08:05:31;3.13;;;2.60;;
6513;SDS011;3290;47.716;9.070;2023-07-28T08:07:56;4.40;;;2.47;;
6513;SDS011;3290;47.716;9.070;2023-07-28T08:10:22;3.33;;;2.20;;
6513;SDS011;3290;47.716;9.070;2023-07-28T08:12:47;2.80;;;1.90;;
6513;SDS011;3290;47.716;9.070;2023-07-28T08:15:13;3.10;;;1.83;;
6513;SDS011;3290;47.716;9.070;2023-07-28T08:17:38;5.10;;;2.20;;
6513;SDS011;3290;47.716;9.070;2023-07-28T08:20:05;6.03;;;2.23;;
6513;SDS011;3290;47.716;9.070;2023-07-28T08:22:31;2.30;;;2.10;;
6513;SDS011;3290;47.716;9.070;2023-07-28T08:24:57;3.03;;;2.10;;
6513;SDS011;3290;47.716;9.070;2023-07-28T08:27:22;3.00;;;2.67;;
6513;SDS011;3290;47.716;9.070;2023-07-28T08:29:49;3.17;;;2.80;;
6513;SDS011;3290;47.716;9.070;2023-07-28T08:32:14;2.43;;;2.23;;
6513;SDS011;3290;47.716;9.070;2023-07-28T08:34:39;5.00;;;2.30;;
6513;SDS011;3290;47.716;9.070;2023-07-28T08:37:05;3.30;;;2.40;;
6513;SDS011;3290;47.716;9.070;2023-07-28T08:39:30;2.90;;;2.20;;
6513;SDS011;3290;47.716;9.070;2023-07-28T08:42:02;3.07;;;2.77;;
6513;SDS011;3290;47.716;9.070;2023-07-28T08:44:32;2.60;;;2.00;;
6513;SDS011;3290;47.716;9.070;2023-07-28T08:46:59;4.07;;;2.90;;
6513;SDS011;3290;47.716;9.070;2023-07-28T08:49:25;3.40;;;2.33;;
6513;SDS011;3290;47.716;9.070;2023-07-28T08:52:00;7.93;;;2.77;;
6513;SDS011;3290;47.716;9.070;2023-07-28T08:54:46;3.23;;;2.60;;
6513;SDS011;3290;47.716;9.070;2023-07-28T08:57:11;3.10;;;2.30;;
6513;SDS011;3290;47.716;9.070;2023-07-28T08:59:37;2.67;;;2.20;;
6513;SDS011;3290;47.716;9.070;2023-07-28T09:02:08;2.93;;;2.30;;
6513;SDS011;3290;47.716;9.070;2023-07-28T09:04:35;2.37;;;2.10;;
6513;SDS011;3290;47.716;9.070;2023-07-28T09:07:00;3.07;;;2.57;;
6513;SDS011;3290;47.716;9.070;2023-07-28T09:09:31;6.83;;;3.13;;
6513;SDS011;3290;47.716;9.070;2023-07-28T09:11:57;2.37;;;2.17;;
6513;SDS011;3290;47.716;9.070;2023-07-28T09:14:24;3.37;;;2.80;;
6513;SDS011;3290;47.716;9.070;2023-07-28T09:16:49;2.73;;;2.17;;
6513;SDS011;3290;47.716;9.070;2023-07-28T09:19:15;5.23;;;3.07;;
6513;SDS011;3290;47.716;9.070;2023-07-28T09:21:42;5.40;;;3.00;;
6513;SDS011;3290;47.716;9.070;2023-07-28T09:24:12;5.33;;;2.80;;
6513;SDS011;3290;47.716;9.070;2023-07-28T09:29:26;3.50;;;2.27;;
6513;SDS011;3290;47.716;9.070;2023-07-28T09:32:02;3.57;;;2.90;;
6513;SDS011;3290;47.716;9.070;2023-07-28T09:34:29;3.50;;;2.90;;
6513;SDS011;3290;47.716;9.070;2023-07-28T09:36:54;2.53;;;2.17;;
6513;SDS011;3290;47.716;9.070;2023-07-28T09:39:21;3.47;;;3.10;;
6513;SDS011;3290;47.716;9.070;2023-07-28T09:41:46;3.80;;;2.80;;
6513;SDS011;3290;47.716;9.070;2023-07-28T09:44:12;4.53;;;2.43;;
6513;SDS011;3290;47.716;9.070;2023-07-28T09:46:50;3.00;;;2.57;;
6513;SDS011;3290;47.716;9.070;2023-07-28T09:49:25;5.27;;;2.70;;
6513;SDS011;3290;47.716;9.070;2023-07-28T09:51:53;4.87;;;2.90;;
6513;SDS011;3290;47.716;9.070;2023-07-28T09:54:23;3.80;;;2.23;;
6513;SDS011;3290;47.716;9.070;2023-07-28T09:56:54;3.77;;;2.40;;
6513;SDS011;3290;47.716;9.070;2023-07-28T09:59:28;4.23;;;2.70;;
6513;SDS011;3290;47.716;9.070;2023-07-28T10:01:56;2.93;;;2.43;;
6513;SDS011;3290;47.716;9.070;2023-07-28T10:04:23;4.90;;;2.50;;
6513;SDS011;3290;47.716;9.070;2023-07-28T10:06:49;7.57;;;2.73;;
6513;SDS011;3290;47.716;9.070;2023-07-28T10:09:16;4.37;;;2.57;;
6513;SDS011;3290;47.716;9.070;2023-07-28T10:11:42;6.60;;;2.67;;
6513;SDS011;3290;47.716;9.070;2023-07-28T10:14:08;3.27;;;2.97;;
6513;SDS011;3290;47.716;9.070;2023-07-28T10:16:39;3.50;;;2.97;;
6513;SDS011;3290;47.716;9.070;2023-07-28T10:19:05;3.60;;;2.80;;
6513;SDS011;3290;47.716;9.070;2023-07-28T10:21:31;6.20;;;2.90;;
6513;SDS011;3290;47.716;9.070;2023-07-28T10:24:04;3.87;;;2.73;;
6513;SDS011;3290;47.716;9.070;2023-07-28T10:26:38;3.20;;;2.70;;
6513;SDS011;3290;47.716;9.070;2023-07-28T10:29:13;5.77;;;2.80;;
6513;SDS011;3290;47.716;9.070;2023-07-28T10:31:49;2.90;;;2.60;;
6513;SDS011;3290;47.716;9.070;2023-07-28T10:34:16;4.00;;;2.33;;
6513;SDS011;3290;47.716;9.070;2023-07-28T10:36:43;3.20;;;2.50;;
6513;SDS011;3290;47.716;9.070;2023-07-28T10:44:31;3.27;;;2.40;;
6513;SDS011;3290;47.716;9.070;2023-07-28T10:46:57;3.87;;;2.67;;
6513;SDS011;3290;47.716;9.070;2023-07-28T10:49:24;3.70;;;2.90;;
6513;SDS011;3290;47.716;9.070;2023-07-28T10:51:50;3.10;;;2.50;;
6513;SDS011;3290;47.716;9.070;2023-07-28T10:54:16;3.30;;;2.40;;
6513;SDS011;3290;47.716;9.070;2023-07-28T10:56:45;3.30;;;2.70;;
6513;SDS011;3290;47.716;9.070;2023-07-28T10:59:13;7.60;;;3.00;;
6513;SDS011;3290;47.716;9.070;2023-07-28T11:01:40;3.57;;;2.27;;
6513;SDS011;3290;47.716;9.070;2023-07-28T11:06:31;3.70;;;2.60;;
6513;SDS011;3290;47.716;9.070;2023-07-28T11:08:57;4.73;;;3.10;;
6513;SDS011;3290;47.716;9.070;2023-07-28T11:11:23;3.00;;;2.70;;
6513;SDS011;3290;47.716;9.070;2023-07-28T11:13:48;4.10;;;3.30;;
6513;SDS011;3290;47.716;9.070;2023-07-28T11:16:14;2.93;;;2.60;;
6513;SDS011;3290;47.716;9.070;2023-07-28T11:18:39;2.70;;;2.30;;
6513;SDS011;3290;47.716;9.070;2023-07-28T11:21:04;3.97;;;2.37;;
6513;SDS011;3290;47.716;9.070;2023-07-28T11:23:30;4.73;;;2.77;;
6513;SDS011;3290;47.716;9.070;2023-07-28T11:25:55;3.47;;;3.00;;
6513;SDS011;3290;47.716;9.070;2023-07-28T11:28:21;2.77;;;2.53;;
6513;SDS011;3290;47.716;9.070;2023-07-28T11:30:46;4.60;;;3.00;;
6513;SDS011;3290;47.716;9.070;2023-07-28T11:33:12;2.83;;;2.57;;
6513;SDS011;3290;47.716;9.070;2023-07-28T11:35:38;4.40;;;2.90;;
6513;SDS011;3290;47.716;9.070;2023-07-28T11:38:07;8.93;;;3.03;;
6513;SDS011;3290;47.716;9.070;2023-07-28T11:40:34;4.20;;;2.73;;
6513;SDS011;3290;47.716;9.070;2023-07-28T11:43:00;3.47;;;2.77;;
6513;SDS011;3290;47.716;9.070;2023-07-28T11:45:25;3.10;;;2.53;;
6513;SDS011;3290;47.716;9.070;2023-07-28T11:47:57;4.30;;;2.87;;
6513;SDS011;3290;47.716;9.070;2023-07-28T11:50:28;3.03;;;2.60;;
6513;SDS011;3290;47.716;9.070;2023-07-28T11:52:56;4.00;;;3.37;;
6513;SDS011;3290;47.716;9.070;2023-07-28T11:55:23;4.97;;;2.70;;
6513;SDS011;3290;47.716;9.070;2023-07-28T11:57:49;7.83;;;2.50;;
6513;SDS011;3290;47.716;9.070;2023-07-28T12:00:15;4.40;;;3.03;;
6513;SDS011;3290;47.716;9.070;2023-07-28T12:02:51;4.53;;;3.23;;
6513;SDS011;3290;47.716;9.070;2023-07-28T12:05:26;4.10;;;2.60;;
6513;SDS011;3290;47.716;9.070;2023-07-28T12:07:51;4.90;;;3.33;;
6513;SDS011;3290;47.716;9.070;2023-07-28T12:10:16;3.30;;;3.00;;
6513;SDS011;3290;47.716;9.070;2023-07-28T12:12:45;3.90;;;3.17;;
6513;SDS011;3290;47.716;9.070;2023-07-28T12:15:28;5.90;;;2.90;;
6513;SDS011;3290;47.716;9.070;2023-07-28T12:20:40;5.80;;;3.57;;
6513;SDS011;3290;47.716;9.070;2023-07-28T12:23:07;3.37;;;3.07;;
6513;SDS011;3290;47.716;9.070;2023-07-28T12:25:34;6.10;;;3.00;;
6513;SDS011;3290;47.716;9.070;2023-07-28T12:28:01;5.60;;;3.00;;
6513;SDS011;3290;47.716;9.070;2023-07-28T12:30:27;3.50;;;2.80;;
6513;SDS011;3290;47.716;9.070;2023-07-28T12:32:52;6.83;;;3.30;;
6513;SDS011;3290;47.716;9.070;2023-07-28T12:35:18;2.87;;;2.20;;
6513;SDS011;3290;47.716;9.070;2023-07-28T12:37:43;2.67;;;2.37;;
6513;SDS011;3290;47.716;9.070;2023-07-28T12:40:09;4.90;;;2.90;;
6513;SDS011;3290;47.716;9.070;2023-07-28T12:42:35;3.20;;;2.70;;
6513;SDS011;3290;47.716;9.070;2023-07-28T12:45:00;3.53;;;2.80;;
6513;SDS011;3290;47.716;9.070;2023-07-28T12:47:26;4.20;;;3.17;;
6513;SDS011;3290;47.716;9.070;2023-07-28T12:49:51;2.77;;;2.50;;
6513;SDS011;3290;47.716;9.070;2023-07-28T12:52:17;3.50;;;2.73;;
6513;SDS011;3290;47.716;9.070;2023-07-28T12:54:42;4.67;;;2.87;;
6513;SDS011;3290;47.716;9.070;2023-07-28T12:57:08;4.13;;;2.73;;
6513;SDS011;3290;47.716;9.070;2023-07-28T12:59:35;3.40;;;2.70;;
6513;SDS011;3290;47.716;9.070;2023-07-28T13:02:04;6.73;;;2.60;;
6513;SDS011;3290;47.716;9.070;2023-07-28T13:04:29;4.10;;;3.10;;
6513;SDS011;3290;47.716;9.070;2023-07-28T13:06:55;3.00;;;2.67;;
6513;SDS011;3290;47.716;9.070;2023-07-28T13:09:20;4.43;;;3.30;;
6513;SDS011;3290;47.716;9.070;2023-07-28T13:11:45;3.63;;;3.17;;
6513;SDS011;3290;47.716;9.070;2023-07-28T13:14:11;5.30;;;2.90;;
6513;SDS011;3290;47.716;9.070;2023-07-28T13:16:36;4.60;;;3.20;;
6513;SDS011;3290;47.716;9.070;2023-07-28T13:19:03;4.10;;;2.90;;
6513;SDS011;3290;47.716;9.070;2023-07-28T13:21:29;4.50;;;3.20;;
6513;SDS011;3290;47.716;9.070;2023-07-28T13:23:54;5.83;;;3.17;;
6513;SDS011;3290;47.716;9.070;2023-07-28T13:26:19;4.17;;;3.30;;
6513;SDS011;3290;47.716;9.070;2023-07-28T13:28:45;4.60;;;2.63;;
6513;SDS011;3290;47.716;9.070;2023-07-28T13:31:18;3.30;;;3.00;;
6513;SDS011;3290;47.716;9.070;2023-07-28T13:33:43;3.50;;;3.10;;
6513;SDS011;3290;47.716;9.070;2023-07-28T13:36:09;3.00;;;2.70;;
6513;SDS011;3290;47.716;9.070;2023-07-28T13:38:35;4.77;;;3.00;;
6513;SDS011;3290;47.716;9.070;2023-07-28T13:41:04;2.70;;;2.40;;
6513;SDS011;3290;47.716;9.070;2023-07-28T13:43:31;6.87;;;2.97;;
6513;SDS011;3290;47.716;9.070;2023-07-28T13:45:56;4.20;;;2.77;;
6513;SDS011;3290;47.716;9.070;2023-07-28T13:48:23;3.40;;;2.77;;
6513;SDS011;3290;47.716;9.070;2023-07-28T13:50:48;3.17;;;2.50;;
6513;SDS011;3290;47.716;9.070;2023-07-28T13:53:13;3.10;;;2.80;;
6513;SDS011;3290;47.716;9.070;2023-07-28T13:55:39;4.43;;;2.90;;
6513;SDS011;3290;47.716;9.070;2023-07-28T13:58:04;3.40;;;2.67;;
6513;SDS011;3290;47.716;9.070;2023-07-28T14:00:31;4.00;;;2.60;;
6513;SDS011;3290;47.716;9.070;2023-07-28T14:02:57;4.37;;;2.70;;
6513;SDS011;3290;47.716;9.070;2023-07-28T14:05:22;3.20;;;2.83;;
6513;SDS011;3290;47.716;9.070;2023-07-28T14:07:48;8.07;;;2.70;;
6513;SDS011;3290;47.716;9.070;2023-07-28T14:10:13;5.17;;;3.20;;
6513;SDS011;3290;47.716;9.070;2023-07-28T14:12:38;3.63;;;2.87;;
6513;SDS011;3290;47.716;9.070;2023-07-28T14:15:04;3.60;;;2.77;;
6513;SDS011;3290;47.716;9.070;2023-07-28T14:17:31;4.83;;;2.97;;
6513;SDS011;3290;47.716;9.070;2023-07-28T14:19:56;4.37;;;2.33;;
6513;SDS011;3290;47.716;9.070;2023-07-28T14:22:22;4.03;;;2.70;;
6513;SDS011;3290;47.716;9.070;2023-07-28T14:24:47;4.07;;;2.43;;
6513;SDS011;3290;47.716;9.070;2023-07-28T14:27:12;3.70;;;2.70;;
6513;SDS011;3290;47.716;9.070;2023-07-28T14:29:38;5.90;;;2.70;;
6513;SDS011;3290;47.716;9.070;2023-07-28T14:32:04;3.40;;;2.87;;
6513;SDS011;3290;47.716;9.070;2023-07-28T14:34:30;5.70;;;2.90;;
6513;SDS011;3290;47.716;9.070;2023-07-28T14:36:55;11.10;;;2.80;;
6513;SDS011;3290;47.716;9.070;2023-07-28T14:39:20;5.13;;;2.97;;
6513;SDS011;3290;47.716;9.070;2023-07-28T14:41:46;5.57;;;2.80;;
6513;SDS011;3290;47.716;9.070;2023-07-28T14:44:11;3.87;;;2.83;;
6513;SDS011;3290;47.716;9.070;2023-07-28T14:46:36;3.63;;;2.83;;
6513;SDS011;3290;47.716;9.070;2023-07-28T14:49:02;3.87;;;2.90;;
6513;SDS011;3290;47.716;9.070;2023-07-28T14:51:27;3.33;;;3.03;;
6513;SDS011;3290;47.716;9.070;2023-07-28T14:53:53;4.37;;;2.80;;
6513;SDS011;3290;47.716;9.070;2023-07-28T14:56:20;6.27;;;3.37;;
6513;SDS011;3290;47.716;9.070;2023-07-28T14:58:49;5.50;;;3.07;;
6513;SDS011;3290;47.716;9.070;2023-07-28T15:01:16;2.90;;;2.60;;
6513;SDS011;3290;47.716;9.070;2023-07-28T15:03:41;5.43;;;2.87;;
6513;SDS011;3290;47.716;9.070;2023-07-28T15:06:07;3.90;;;2.77;;
6513;SDS011;3290;47.716;9.070;2023-07-28T15:08:33;3.90;;;2.57;;
6513;SDS011;3290;47.716;9.070;2023-07-28T15:10:58;3.07;;;2.70;;
6513;SDS011;3290;47.716;9.070;2023-07-28T15:13:24;3.83;;;2.87;;
6513;SDS011;3290;47.716;9.070;2023-07-28T15:15:49;4.80;;;3.17;;
6513;SDS011;3290;47.716;9.070;2023-07-28T15:18:15;3.10;;;2.30;;
6513;SDS011;3290;47.716;9.070;2023-07-28T15:20:41;5.57;;;2.73;;
6513;SDS011;3290;47.716;9.070;2023-07-28T15:23:07;4.80;;;2.83;;
6513;SDS011;3290;47.716;9.070;2023-07-28T15:25:33;7.37;;;3.50;;